Time;durP1;ratioP1;P1;durP2;ratioP2;P2;SDS_P1;SDS_P2;PMS_P1;PMS_P2;Temp;Humidity;BMP_temperature;BMP_pressure;BME280_temperature;BME280_humidity;BME280_pressure;Samples;Min_cycle;Max_cycle;Signal;HPM_P1;HPM_P2
2023/04/03 00:01:50;;;;;;;2.03;1.90;;;;;;;4.08;nan;98870.41;5057254;28;20232;-75
2023/04/03 00:04:17;;;;;;;2.33;1.93;;;;;;;3.99;nan;98862.63;5056756;28;20201;-75
2023/04/03 00:06:43;;;;;;;2.20;1.97;;;;;;;4.06;nan;98861.00;5056681;28;20197;-75
2023/04/03 00:09:09;;;;;;;2.63;2.10;;;;;;;4.15;nan;98865.31;5056629;28;20208;-75
2023/04/03 00:11:36;;;;;;;2.47;2.27;;;;;;;3.95;nan;98863.94;5056399;28;20215;-75
2023/04/03 00:14:02;;;;;;;2.60;1.97;;;;;;;4.03;nan;98862.16;5056236;28;20221;-76
2023/04/03 00:16:28;;;;;;;3.23;2.20;;;;;;;3.95;nan;98867.41;5055990;28;20221;-75
2023/04/03 00:18:55;;;;;;;2.83;2.07;;;;;;;4.05;nan;98868.09;5056358;28;20542;-75
2023/04/03 00:21:21;;;;;;;3.57;2.37;;;;;;;3.97;nan;98870.69;5056190;28;20260;-75
2023/04/03 00:23:48;;;;;;;3.73;2.47;;;;;;;3.95;nan;98872.66;5056237;28;20586;-75
2023/04/03 00:26:14;;;;;;;1.83;1.73;;;;;;;4.07;nan;98876.63;5056324;28;20201;-75
2023/04/03 00:28:40;;;;;;;2.37;1.90;;;;;;;4.08;nan;98865.16;5056290;28;20209;-75
2023/04/03 00:31:07;;;;;;;3.30;2.07;;;;;;;3.98;nan;98872.31;5055953;28;20205;-74
2023/04/03 00:33:33;;;;;;;4.20;2.53;;;;;;;4.07;nan;98866.13;5056082;28;20582;-75
2023/04/03 00:36:00;;;;;;;2.93;2.10;;;;;;;4.16;nan;98864.34;5056099;28;20233;-75
2023/04/03 00:38:26;;;;;;;2.50;2.17;;;;;;;3.96;nan;98860.31;5056622;28;20259;-75
2023/04/03 00:40:52;;;;;;;2.50;2.30;;;;;;;3.86;nan;98864.88;5056054;28;20568;-75
2023/04/03 00:43:23;;;;;;;4.07;2.30;;;;;;;3.93;nan;98865.91;5055950;28;20221;-75
2023/04/03 00:45:52;;;;;;;3.07;2.17;;;;;;;3.86;nan;98863.09;5055646;28;20185;-75
2023/04/03 00:48:23;;;;;;;3.23;2.10;;;;;;;4.03;nan;98863.97;5056093;28;20201;-75
2023/04/03 00:50:51;;;;;;;3.30;2.27;;;;;;;3.97;nan;98865.41;5055912;28;20192;-75
2023/04/03 00:53:22;;;;;;;4.40;2.30;;;;;;;4.00;nan;98865.13;5055770;28;20233;-74
2023/04/03 00:55:50;;;;;;;2.53;2.00;;;;;;;3.76;nan;98861.53;5055532;28;20210;-74
2023/04/03 00:58:20;;;;;;;2.33;1.93;;;;;;;3.88;nan;98869.00;5055780;28;20213;-75
2023/04/03 01:00:51;;;;;;;3.53;2.40;;;;;;;3.83;nan;98865.19;5055128;28;20637;-75
2023/04/03 01:03:17;;;;;;;4.37;2.10;;;;;;;3.85;nan;98861.41;5055689;28;20320;-75
2023/04/03 01:05:44;;;;;;;2.27;2.07;;;;;;;3.82;nan;98858.28;5056084;28;20209;-75
2023/04/03 01:08:11;;;;;;;2.67;2.10;;;;;;;3.81;nan;98862.72;5055756;28;20211;-75
2023/04/03 01:10:37;;;;;;;2.70;2.27;;;;;;;3.86;nan;98870.13;5055785;28;20202;-75
2023/04/03 01:13:18;;;;;;;2.30;2.10;;;;;;;3.95;nan;98858.66;5055425;28;20221;-75
2023/04/03 01:15:45;;;;;;;2.40;2.00;;;;;;;3.91;nan;98863.44;5055053;28;20699;-75
2023/04/03 01:18:11;;;;;;;3.33;2.40;;;;;;;3.83;nan;98857.28;5055300;28;20575;-75
2023/04/03 01:20:56;;;;;;;2.70;2.13;;;;;;;3.73;nan;98862.69;5055355;28;20550;-75
2023/04/03 01:23:38;;;;;;;2.60;2.30;;;;;;;3.83;nan;98862.56;5055268;28;20233;-75
2023/04/03 01:26:05;;;;;;;2.90;2.53;;;;;;;3.62;nan;98864.75;5054957;28;20200;-75
2023/04/03 01:28:34;;;;;;;2.17;1.80;;;;;;;3.67;nan;98863.28;5055089;28;20201;-75
2023/04/03 01:31:16;;;;;;;2.13;1.90;;;;;;;3.66;nan;98863.47;5055241;28;20205;-75
2023/04/03 01:33:43;;;;;;;2.33;2.10;;;;;;;3.66;nan;98866.09;5053581;28;20233;-75
2023/04/03 01:36:15;;;;;;;3.93;2.57;;;;;;;3.66;nan;98864.28;5054892;28;20229;-75
2023/04/03 01:38:41;;;;;;;2.60;2.40;;;;;;;3.67;nan;98862.47;5055045;28;20193;-75
2023/04/03 01:41:08;;;;;;;2.43;2.20;;;;;;;3.53;nan;98866.50;5054973;28;20201;-75
2023/04/03 01:43:34;;;;;;;2.43;2.20;;;;;;;3.61;nan;98873.63;5054579;28;20236;-75
2023/04/03 01:46:00;;;;;;;3.20;2.40;;;;;;;3.57;nan;98867.03;5054585;28;20669;-75
2023/04/03 01:48:27;;;;;;;2.13;2.00;;;;;;;3.65;nan;98867.06;5054833;28;20209;-75
2023/04/03 01:50:54;;;;;;;3.83;2.40;;;;;;;3.62;nan;98867.38;5054439;28;20221;-75
2023/04/03 01:53:20;;;;;;;2.47;1.97;;;;;;;3.60;nan;98864.06;5054572;28;20225;-75
2023/04/03 01:55:47;;;;;;;2.60;2.30;;;;;;;3.60;nan;98867.53;5054605;28;20231;-75
2023/04/03 01:58:13;;;;;;;2.27;2.00;;;;;;;3.60;nan;98869.31;5054635;28;20209;-75
2023/04/03 02:00:40;;;;;;;4.03;2.30;;;;;;;3.53;nan;98874.38;5054537;28;20209;-75
2023/04/03 02:03:06;;;;;;;4.17;2.60;;;;;;;3.50;nan;98861.56;5054386;28;20584;-76
2023/04/03 02:05:33;;;;;;;3.33;2.53;;;;;;;3.55;nan;98866.34;5054431;28;20216;-75
2023/04/03 02:07:59;;;;;;;3.93;2.23;;;;;;;3.56;nan;98865.34;5054352;28;20209;-76
2023/04/03 02:10:26;;;;;;;2.73;2.10;;;;;;;3.59;nan;98863.25;5054354;28;20212;-76
2023/04/03 02:12:52;;;;;;;3.40;2.20;;;;;;;3.75;nan;98867.78;5053836;28;20228;-76
2023/04/03 02:15:18;;;;;;;3.53;2.27;;;;;;;3.58;nan;98869.50;5054000;28;20564;-76
2023/04/03 02:17:45;;;;;;;2.93;1.97;;;;;;;3.64;nan;98871.50;5054374;28;20252;-76
2023/04/03 02:20:12;;;;;;;2.40;2.20;;;;;;;3.68;nan;98864.97;5054197;28;20569;-76
2023/04/03 02:22:38;;;;;;;2.00;1.80;;;;;;;3.60;nan;98871.97;5053650;28;20225;-76
2023/04/03 02:25:05;;;;;;;4.97;2.27;;;;;;;3.58;nan;98879.19;5053818;28;20205;-75
2023/04/03 02:27:32;;;;;;;2.20;2.00;;;;;;;3.56;nan;98867.97;5053747;28;20206;-75
2023/04/03 02:29:58;;;;;;;3.73;2.30;;;;;;;3.66;nan;98871.34;5054024;28;20205;-75
2023/04/03 02:32:24;;;;;;;2.37;2.07;;;;;;;3.61;nan;98871.00;5053867;28;20232;-75
2023/04/03 02:34:51;;;;;;;2.87;2.37;;;;;;;3.65;nan;98873.16;5053669;28;20192;-75
2023/04/03 02:37:17;;;;;;;2.23;2.03;;;;;;;3.83;nan;98871.28;5053786;28;20280;-75
2023/04/03 02:39:44;;;;;;;2.13;2.00;;;;;;;3.89;nan;98870.63;5053749;28;20205;-76
2023/04/03 02:42:10;;;;;;;4.70;2.30;;;;;;;3.79;nan;98877.03;5053640;28;20225;-76
2023/04/03 02:44:36;;;;;;;2.20;2.00;;;;;;;3.64;nan;98868.03;5053574;28;20217;-75
2023/04/03 02:47:03;;;;;;;3.03;2.50;;;;;;;3.66;nan;98872.16;5053709;28;20235;-75
2023/04/03 02:49:29;;;;;;;2.50;1.93;;;;;;;3.60;nan;98874.59;5053280;28;20670;-75
2023/04/03 02:51:56;;;;;;;2.00;1.80;;;;;;;3.60;nan;98875.41;5053537;28;20201;-75
2023/04/03 02:54:23;;;;;;;3.53;2.20;;;;;;;3.74;nan;98876.63;5053673;28;20201;-75
2023/04/03 02:56:50;;;;;;;4.37;2.03;;;;;;;3.85;nan;98874.56;5053111;28;20757;-75
2023/04/03 02:59:16;;;;;;;3.00;1.87;;;;;;;3.75;nan;98871.22;5053472;28;20209;-76
2023/04/03 03:01:43;;;;;;;2.53;2.33;;;;;;;3.75;nan;98873.84;5053990;28;20201;-76
2023/04/03 03:04:09;;;;;;;3.10;2.33;;;;;;;3.69;nan;98871.88;5053021;28;20779;-75
2023/04/03 03:06:35;;;;;;;2.40;2.10;;;;;;;3.77;nan;98874.53;5053260;28;20287;-76
2023/04/03 03:09:03;;;;;;;2.33;2.13;;;;;;;3.77;nan;98866.66;5053372;28;20205;-76
2023/04/03 03:11:30;;;;;;;2.20;2.00;;;;;;;3.78;nan;98878.81;5053580;28;20208;-76
2023/04/03 03:13:56;;;;;;;3.77;2.50;;;;;;;3.71;nan;98869.09;5053162;28;20229;-76
2023/04/03 03:16:23;;;;;;;3.00;1.87;;;;;;;3.69;nan;98873.66;5053875;28;20316;-76
2023/04/03 03:18:49;;;;;;;4.90;2.03;;;;;;;3.87;nan;98871.78;5053172;28;20212;-75
2023/04/03 03:21:16;;;;;;;3.50;2.30;;;;;;;3.72;nan;98862.84;5053232;28;20232;-76
2023/04/03 03:23:42;;;;;;;2.20;2.00;;;;;;;3.62;nan;98865.56;5056373;28;20235;-76
2023/04/03 03:26:11;;;;;;;2.27;2.07;;;;;;;3.81;nan;98862.72;5057796;28;20216;-76
2023/04/03 03:28:39;;;;;;;3.27;2.07;;;;;;;3.78;nan;98859.56;5056971;28;20215;-76
2023/04/03 03:31:06;;;;;;;2.23;1.63;;;;;;;3.74;nan;98861.69;5057110;28;20204;-75
2023/04/03 03:33:32;;;;;;;3.90;1.93;;;;;;;3.83;nan;98865.19;5056709;28;20298;-75
2023/04/03 03:35:59;;;;;;;3.67;1.97;;;;;;;3.84;nan;98858.97;5056612;28;20200;-75
2023/04/03 03:38:25;;;;;;;2.60;1.80;;;;;;;3.78;nan;98862.19;5056746;28;20209;-75
2023/04/03 03:40:52;;;;;;;2.27;1.93;;;;;;;3.86;nan;98859.63;5056911;28;20205;-75
2023/04/03 03:43:19;;;;;;;1.97;1.80;;;;;;;3.78;nan;98862.19;5056836;28;20228;-75
2023/04/03 03:45:50;;;;;;;5.23;2.10;;;;;;;3.83;nan;98862.56;5056831;28;20304;-75
2023/04/03 03:48:16;;;;;;;3.27;2.20;;;;;;;3.80;nan;98862.88;5056511;28;20650;-75
2023/04/03 03:50:43;;;;;;;2.30;1.77;;;;;;;3.82;nan;98853.84;5056569;28;20571;-75
2023/04/03 03:53:09;;;;;;;2.10;1.90;;;;;;;3.79;nan;98856.78;5056756;28;20225;-75
2023/04/03 03:55:35;;;;;;;4.30;2.40;;;;;;;3.73;nan;98859.22;5056538;28;20214;-75
2023/04/03 03:58:03;;;;;;;2.70;2.33;;;;;;;3.78;nan;98867.47;5056935;28;20573;-75
2023/04/03 04:00:30;;;;;;;2.80;1.83;;;;;;;3.69;nan;98860.50;5056250;28;20208;-75
2023/04/03 04:02:56;;;;;;;2.33;2.13;;;;;;;3.68;nan;98866.75;5056073;28;20315;-75
2023/04/03 04:05:23;;;;;;;2.53;2.33;;;;;;;3.67;nan;98865.91;5056350;28;20669;-75
2023/04/03 04:07:49;;;;;;;2.40;2.00;;;;;;;3.66;nan;98866.91;5056354;28;20197;-75
2023/04/03 04:10:16;;;;;;;2.60;2.27;;;;;;;3.67;nan;98865.91;5055898;28;20668;-75
2023/04/03 04:12:42;;;;;;;3.63;1.90;;;;;;;3.72;nan;98868.94;5056720;28;20221;-75
2023/04/03 04:15:09;;;;;;;2.57;2.23;;;;;;;3.81;nan;98873.25;5056507;28;20562;-75
2023/04/03 04:17:37;;;;;;;3.50;2.10;;;;;;;3.86;nan;98875.41;5056282;28;20320;-75
2023/04/03 04:20:05;;;;;;;3.63;2.00;;;;;;;3.80;nan;98871.56;5056306;28;20574;-75
2023/04/03 04:22:31;;;;;;;3.17;2.10;;;;;;;3.87;nan;98867.34;5056313;28;20225;-75
2023/04/03 04:24:58;;;;;;;2.10;1.90;;;;;;;3.89;nan;98875.09;5055794;28;20205;-75
2023/04/03 04:27:24;;;;;;;2.17;1.90;;;;;;;3.88;nan;98873.44;5056074;28;20201;-75
2023/04/03 04:29:50;;;;;;;3.37;2.07;;;;;;;3.81;nan;98877.69;5055678;28;20212;-75
2023/04/03 04:32:17;;;;;;;3.40;1.87;;;;;;;3.79;nan;98872.56;5055652;28;20224;-75
2023/04/03 04:34:43;;;;;;;3.50;1.97;;;;;;;3.85;nan;98873.75;5055109;28;20193;-75
2023/04/03 04:37:10;;;;;;;2.87;1.80;;;;;;;3.84;nan;98872.13;5055611;28;20696;-75
2023/04/03 04:39:36;;;;;;;2.07;1.90;;;;;;;3.88;nan;98876.09;5055761;28;20296;-75
2023/04/03 04:42:02;;;;;;;3.33;2.67;;;;;;;3.92;nan;98878.22;5055274;28;20614;-75
2023/04/03 04:44:29;;;;;;;2.47;2.20;;;;;;;3.89;nan;98870.63;5055427;28;20578;-75
2023/04/03 04:46:55;;;;;;;2.50;1.80;;;;;;;3.80;nan;98863.69;5055436;28;20206;-76
2023/04/03 04:49:21;;;;;;;3.20;2.03;;;;;;;3.87;nan;98869.16;5055472;28;20213;-75
2023/04/03 04:51:48;;;;;;;2.37;2.10;;;;;;;3.90;nan;98866.22;5055611;28;20211;-75
2023/04/03 04:54:14;;;;;;;2.17;1.80;;;;;;;3.86;nan;98872.75;5055152;28;20305;-75
2023/04/03 04:56:41;;;;;;;2.83;1.87;;;;;;;3.87;nan;98875.25;5055143;28;20228;-75
2023/04/03 04:59:07;;;;;;;2.60;2.07;;;;;;;3.93;nan;98871.97;5054936;28;20605;-75
2023/04/03 05:01:33;;;;;;;3.77;1.90;;;;;;;4.04;nan;98884.88;5055232;28;20227;-75
2023/04/03 05:04:00;;;;;;;1.73;1.60;;;;;;;4.02;nan;98888.63;5054960;28;20227;-75
2023/04/03 05:06:26;;;;;;;3.20;1.90;;;;;;;3.99;nan;98892.41;5054825;28;20209;-75
2023/04/03 05:08:52;;;;;;;2.10;1.80;;;;;;;4.03;nan;98892.91;5055540;28;20201;-75
2023/04/03 05:11:20;;;;;;;3.83;2.00;;;;;;;3.99;nan;98894.22;5054981;28;20205;-75
2023/04/03 05:13:46;;;;;;;2.47;1.83;;;;;;;3.95;nan;98898.13;5054295;28;20225;-75
2023/04/03 05:16:12;;;;;;;1.73;1.63;;;;;;;3.97;nan;98896.19;5055301;28;20209;-76
2023/04/03 05:18:39;;;;;;;3.33;1.90;;;;;;;3.86;nan;98896.44;5054800;28;20232;-76
2023/04/03 05:21:05;;;;;;;2.20;1.80;;;;;;;3.99;nan;98905.56;5054939;28;20248;-75
2023/04/03 05:23:32;;;;;;;3.00;1.83;;;;;;;3.83;nan;98905.47;5054771;28;20221;-76
2023/04/03 05:25:58;;;;;;;3.03;2.07;;;;;;;3.96;nan;98897.13;5054380;28;20663;-75
2023/04/03 05:28:25;;;;;;;2.97;2.00;;;;;;;3.94;nan;98905.19;5055199;28;20209;-74
2023/04/03 05:30:59;;;;;;;3.27;1.80;;;;;;;4.06;nan;98905.72;5054348;28;20215;-75
2023/04/03 05:33:26;;;;;;;3.97;1.97;;;;;;;3.91;nan;98907.31;5054550;28;20239;-75
2023/04/03 05:35:53;;;;;;;2.70;1.80;;;;;;;4.00;nan;98911.63;5054584;28;20212;-75
2023/04/03 05:38:20;;;;;;;2.63;1.90;;;;;;;4.04;nan;98913.81;5054226;28;20233;-75
2023/04/03 05:40:46;;;;;;;4.57;2.20;;;;;;;3.95;nan;98913.91;5054133;28;20209;-75
2023/04/03 05:43:13;;;;;;;1.90;1.80;;;;;;;4.01;nan;98910.66;5054232;28;20225;-75
2023/04/03 05:45:39;;;;;;;5.40;2.00;;;;;;;4.01;nan;98913.28;5053190;28;20212;-75
2023/04/03 05:48:05;;;;;;;2.37;1.90;;;;;;;3.99;nan;98915.25;5054072;28;20212;-75
2023/04/03 05:50:32;;;;;;;2.37;1.90;;;;;;;3.96;nan;98918.19;5054767;28;20214;-75
2023/04/03 05:52:59;;;;;;;3.23;1.87;;;;;;;3.90;nan;98922.28;5053689;28;20229;-75
2023/04/03 05:55:26;;;;;;;2.73;1.60;;;;;;;3.99;nan;98925.78;5053948;28;20208;-75
2023/04/03 05:57:52;;;;;;;4.73;1.80;;;;;;;3.94;nan;98928.06;5053957;28;20217;-75
2023/04/03 06:00:19;;;;;;;2.67;1.77;;;;;;;3.93;nan;98918.53;5054271;28;20205;-75
2023/04/03 06:02:45;;;;;;;2.23;1.87;;;;;;;3.99;nan;98923.16;5053916;28;20573;-75
2023/04/03 06:05:13;;;;;;;3.07;1.90;;;;;;;4.07;nan;98923.19;5054177;28;20292;-75
2023/04/03 06:07:39;;;;;;;2.77;1.80;;;;;;;4.12;nan;98926.97;5053974;28;20618;-75
2023/04/03 06:10:06;;;;;;;3.40;1.87;;;;;;;3.89;nan;98927.69;5053653;28;20209;-74
2023/04/03 06:12:33;;;;;;;2.73;1.87;;;;;;;3.88;nan;98932.13;5053754;28;20221;-74
2023/04/03 06:14:59;;;;;;;2.87;1.60;;;;;;;3.97;nan;98935.66;5053345;28;20209;-75
2023/04/03 06:17:26;;;;;;;2.43;1.60;;;;;;;3.94;nan;98936.75;5053644;28;20225;-74
2023/04/03 06:19:53;;;;;;;3.10;1.83;;;;;;;4.01;nan;98931.69;5053223;28;20227;-76
2023/04/03 06:22:21;;;;;;;2.90;1.57;;;;;;;4.05;nan;98946.19;5053597;28;20252;-73
2023/04/03 06:24:47;;;;;;;4.50;1.87;;;;;;;4.05;nan;98935.66;5054371;28;20207;-74
2023/04/03 06:27:14;;;;;;;2.73;1.90;;;;;;;3.99;nan;98936.31;5053493;28;20205;-74
2023/04/03 06:29:40;;;;;;;1.60;1.50;;;;;;;4.09;nan;98947.53;5053387;28;20255;-74
2023/04/03 06:32:07;;;;;;;2.83;1.77;;;;;;;4.13;nan;98951.50;5053004;28;20197;-74
2023/04/03 06:34:37;;;;;;;1.87;1.77;;;;;;;4.19;nan;98950.88;5053350;28;20272;-74
2023/04/03 06:37:04;;;;;;;2.57;2.20;;;;;;;4.17;nan;98958.09;5053055;28;20657;-74
2023/04/03 06:39:30;;;;;;;2.73;1.90;;;;;;;3.99;nan;98942.41;5053077;28;20695;-74
2023/04/03 06:41:57;;;;;;;2.03;1.93;;;;;;;4.13;nan;98944.44;5053453;28;20201;-75
2023/04/03 06:44:23;;;;;;;4.93;2.20;;;;;;;4.24;nan;98944.16;5053943;28;20201;-75
2023/04/03 06:46:51;;;;;;;2.67;1.80;;;;;;;4.32;nan;98948.63;5052779;28;20205;-74
2023/04/03 06:49:18;;;;;;;5.17;2.10;;;;;;;4.13;nan;98943.59;5053517;28;20209;-72
2023/04/03 06:51:44;;;;;;;3.97;2.00;;;;;;;4.05;nan;98948.81;5052820;28;20562;-72
2023/04/03 06:54:10;;;;;;;3.83;2.17;;;;;;;4.14;nan;98947.88;5052477;28;20279;-73
2023/04/03 06:56:37;;;;;;;3.30;1.70;;;;;;;4.20;nan;98958.59;5053071;28;20571;-73
2023/04/03 06:59:04;;;;;;;3.43;2.10;;;;;;;4.12;nan;98955.13;5052724;28;20229;-73
2023/04/03 07:01:30;;;;;;;2.27;1.87;;;;;;;3.99;nan;98959.97;5052737;28;20232;-72
2023/04/03 07:03:57;;;;;;;4.03;2.10;;;;;;;4.20;nan;98953.34;5053363;28;20235;-73
2023/04/03 07:06:26;;;;;;;2.57;1.80;;;;;;;4.43;nan;98959.69;5052712;28;20201;-72
2023/04/03 07:08:53;;;;;;;3.30;2.10;;;;;;;4.38;nan;98961.97;5052912;28;20298;-72
2023/04/03 07:11:20;;;;;;;2.73;1.70;;;;;;;4.35;nan;98969.38;5053562;28;20209;-72
2023/04/03 07:13:46;;;;;;;2.03;1.93;;;;;;;4.41;nan;98963.47;5052611;28;20225;-74
2023/04/03 07:16:13;;;;;;;2.33;1.80;;;;;;;4.52;nan;98971.91;5053213;28;20201;-75
2023/04/03 07:18:39;;;;;;;3.77;2.00;;;;;;;4.63;nan;98966.38;5052610;28;20695;-75
2023/04/03 07:21:06;;;;;;;2.20;2.00;;;;;;;4.79;nan;98968.25;5052572;28;20259;-75
2023/04/03 07:23:33;;;;;;;2.43;2.13;;;;;;;4.72;nan;98967.22;5052534;28;20317;-75
2023/04/03 07:26:00;;;;;;;3.73;1.60;;;;;;;4.85;nan;98967.59;5052476;28;20205;-75
2023/04/03 07:28:26;;;;;;;5.13;2.03;;;;;;;4.92;nan;98971.22;5052531;28;20235;-75
2023/04/03 07:30:55;;;;;;;2.07;1.93;;;;;;;4.80;nan;98973.31;5052451;28;20733;-75
2023/04/03 07:33:23;;;;;;;2.93;2.00;;;;;;;4.96;nan;98970.75;5052524;28;20233;-75
2023/04/03 07:35:50;;;;;;;2.57;1.80;;;;;;;5.18;nan;98974.56;5052500;28;20205;-75
2023/04/03 07:38:16;;;;;;;3.03;2.20;;;;;;;4.95;nan;98977.00;5052476;28;20268;-76
2023/04/03 07:40:48;;;;;;;2.50;1.77;;;;;;;4.97;nan;98984.75;5052470;28;20275;-75
2023/04/03 07:43:16;;;;;;;2.37;1.90;;;;;;;4.99;nan;98982.78;5052332;28;20224;-75
2023/04/03 07:45:43;;;;;;;2.47;1.97;;;;;;;5.08;nan;98976.53;5052269;28;20205;-75
2023/04/03 07:48:14;;;;;;;6.23;1.83;;;;;;;5.10;nan;98985.91;5052157;28;20205;-76
2023/04/03 07:50:44;;;;;;;2.43;2.20;;;;;;;5.27;nan;98986.78;5052492;28;20268;-75
2023/04/03 07:53:11;;;;;;;2.83;2.37;;;;;;;5.42;nan;98978.06;5052194;28;20703;-76
2023/04/03 07:55:42;;;;;;;2.20;1.97;;;;;;;5.38;nan;98989.09;5052463;28;20212;-76
2023/04/03 07:58:14;;;;;;;3.67;2.03;;;;;;;5.42;nan;98990.44;5052389;28;20210;-76
2023/04/03 08:00:40;;;;;;;2.40;1.90;;;;;;;5.44;nan;98994.56;5051984;28;20190;-76
2023/04/03 08:03:08;;;;;;;2.70;1.93;;;;;;;5.60;nan;98991.91;5052196;28;20225;-76
2023/04/03 08:05:42;;;;;;;6.03;2.03;;;;;;;5.88;nan;98992.44;5052282;28;20613;-77
2023/04/03 08:08:11;;;;;;;3.20;2.23;;;;;;;5.61;nan;98998.81;5051898;28;20205;-77
2023/04/03 08:10:38;;;;;;;2.43;2.00;;;;;;;5.62;nan;98997.03;5054812;28;20205;-77
2023/04/03 08:13:05;;;;;;;4.40;1.90;;;;;;;5.62;nan;99003.13;5055788;28;20236;-76
2023/04/03 08:15:32;;;;;;;3.00;2.33;;;;;;;5.64;nan;98997.66;5056274;28;20209;-76
2023/04/03 08:18:00;;;;;;;2.93;2.00;;;;;;;5.71;nan;98999.50;5056385;28;20228;-75
2023/04/03 08:20:27;;;;;;;4.33;2.20;;;;;;;5.28;nan;98998.97;5056159;28;20259;-75
2023/04/03 08:22:54;;;;;;;3.57;2.37;;;;;;;5.12;nan;98999.78;5056031;28;20229;-75
2023/04/03 08:25:20;;;;;;;2.80;2.13;;;;;;;5.26;nan;98995.66;5055824;28;20206;-75
2023/04/03 08:27:47;;;;;;;3.90;2.20;;;;;;;5.61;nan;99003.28;5055394;28;20633;-76
2023/04/03 08:30:14;;;;;;;2.27;1.90;;;;;;;5.79;nan;98996.84;5055672;28;20212;-76
2023/04/03 08:32:41;;;;;;;4.43;1.77;;;;;;;5.78;nan;98999.63;5056089;28;20237;-75
2023/04/03 08:35:08;;;;;;;2.53;1.87;;;;;;;5.94;nan;99002.31;5056212;28;20186;-76
2023/04/03 08:37:38;;;;;;;1.87;1.70;;;;;;;5.69;nan;99000.63;5055634;28;20227;-76
2023/04/03 08:40:07;;;;;;;3.80;2.00;;;;;;;5.78;nan;99007.56;5055653;28;20209;-76
2023/04/03 08:42:41;;;;;;;2.20;2.00;;;;;;;5.86;nan;99004.94;5055659;28;20229;-76
2023/04/03 08:45:22;;;;;;;3.17;2.00;;;;;;;5.53;nan;99003.28;5055425;28;20649;-75
2023/04/03 08:48:05;;;;;;;2.77;1.80;;;;;;;5.83;nan;99005.31;5055619;28;20186;-77
2023/04/03 08:50:38;;;;;;;2.93;1.93;;;;;;;5.84;nan;99012.22;5055774;28;20564;-76
2023/04/03 08:53:07;;;;;;;4.97;2.20;;;;;;;5.91;nan;99008.75;5055187;28;20221;-75
2023/04/03 08:55:54;;;;;;;4.73;1.60;;;;;;;5.63;nan;99001.28;5055148;28;20745;-75
2023/04/03 08:58:27;;;;;;;5.30;2.03;;;;;;;5.79;nan;99009.22;5055372;28;20209;-76
2023/04/03 09:01:00;;;;;;;4.40;2.00;;;;;;;5.81;nan;99009.91;5055443;28;20281;-76
2023/04/03 09:03:35;;;;;;;2.57;1.70;;;;;;;6.06;nan;99011.53;5054918;28;20712;-77
2023/04/03 09:06:06;;;;;;;3.37;2.30;;;;;;;5.87;nan;99012.69;5037001;28;20608;-77
2023/04/03 09:08:54;;;;;;;4.93;2.00;;;;;;;5.85;nan;99011.22;5055096;28;20220;-76
2023/04/03 09:11:46;;;;;;;2.77;1.90;;;;;;;5.74;nan;99004.44;5036821;28;20189;-76
2023/04/03 09:14:48;;;;;;;4.57;2.00;;;;;;;5.80;nan;99011.72;5054846;28;20283;-76
2023/04/03 09:17:43;;;;;;;3.53;1.80;;;;;;;5.99;nan;99014.03;5024932;28;20211;-76
2023/04/03 09:20:34;;;;;;;3.37;1.90;;;;;;;6.14;nan;99014.16;5037127;28;20217;-76
2023/04/03 09:23:00;;;;;;;2.47;1.83;;;;;;;6.07;nan;99011.34;5054539;28;20221;-76
2023/04/03 09:25:32;;;;;;;2.27;1.67;;;;;;;5.94;nan;99018.16;5054524;28;20570;-76
2023/04/03 09:28:01;;;;;;;3.17;1.83;;;;;;;5.92;nan;99012.22;5054526;28;20637;-77
2023/04/03 09:30:28;;;;;;;2.53;1.97;;;;;;;6.09;nan;99019.94;5054802;28;20205;-75
2023/04/03 09:32:57;;;;;;;3.43;1.97;;;;;;;6.07;nan;99007.91;5054357;28;20715;-77
2023/04/03 09:35:32;;;;;;;2.60;1.70;;;;;;;6.38;nan;99006.19;5054497;28;20210;-76
2023/04/03 09:38:03;;;;;;;4.07;1.60;;;;;;;6.15;nan;99010.53;5054566;28;20232;-76
2023/04/03 09:40:36;;;;;;;3.00;1.97;;;;;;;6.24;nan;99006.88;5054292;28;20763;-76
2023/04/03 09:43:23;;;;;;;2.73;1.80;;;;;;;6.44;nan;99008.97;5054409;28;20221;-77
2023/04/03 09:45:51;;;;;;;4.20;2.03;;;;;;;6.47;nan;99007.81;5054335;28;20209;-76
2023/04/03 09:48:21;;;;;;;3.73;1.70;;;;;;;6.33;nan;99006.69;5054236;28;20197;-77
2023/04/03 09:50:59;;;;;;;2.77;1.50;;;;;;;6.44;nan;99005.50;5053954;28;20305;-76
2023/04/03 09:53:32;;;;;;;2.73;1.73;;;;;;;6.32;nan;99012.13;5053845;28;20225;-76
2023/04/03 09:56:03;;;;;;;3.40;1.90;;;;;;;6.16;nan;99017.47;5053941;28;20280;-75
2023/04/03 09:58:41;;;;;;;1.90;1.60;;;;;;;6.36;nan;99014.28;5053799;28;20255;-76
2023/04/03 10:01:23;;;;;;;4.33;1.70;;;;;;;6.27;nan;99004.72;5054606;28;20239;-75
2023/04/03 10:04:07;;;;;;;3.57;1.80;;;;;;;6.34;nan;99010.16;5054233;28;20232;-76
2023/04/03 10:06:36;;;;;;;3.63;1.93;;;;;;;6.56;nan;99004.16;5054143;28;20542;-76
2023/04/03 10:09:15;;;;;;;2.17;1.43;;;;;;;6.55;nan;99008.59;5054350;28;20211;-75
2023/04/03 10:11:59;;;;;;;2.17;1.30;;;;;;;6.49;nan;99004.00;5054018;28;20185;-75
2023/04/03 10:14:26;;;;;;;2.00;1.53;;;;;;;6.77;nan;98999.09;5053567;28;20198;-75
2023/04/03 10:17:15;;;;;;;4.53;1.77;;;;;;;6.83;nan;98987.84;5053836;28;20211;-75
2023/04/03 10:19:52;;;;;;;2.83;1.50;;;;;;;6.88;nan;98994.25;5053701;28;20610;-76
2023/04/03 10:22:39;;;;;;;2.97;1.40;;;;;;;6.93;nan;98983.16;5035920;28;20229;-76
2023/04/03 10:25:18;;;;;;;1.57;1.43;;;;;;;6.79;nan;98997.94;5052956;28;20196;-76
2023/04/03 10:28:00;;;;;;;2.50;1.60;;;;;;;6.95;nan;98983.81;5053315;28;20193;-75
2023/04/03 10:30:30;;;;;;;2.27;1.80;;;;;;;6.61;nan;98999.19;5053663;28;20201;-74
2023/04/03 10:33:28;;;;;;;3.80;1.40;;;;;;;6.55;nan;98982.19;5052994;28;20232;-76
2023/04/03 10:36:22;;;;;;;4.70;2.00;;;;;;;6.45;nan;98988.66;5052900;28;20209;-77
2023/04/03 10:39:26;;;;;;;3.43;1.60;;;;;;;6.30;nan;98998.28;5053423;28;20210;-76
2023/04/03 10:42:10;;;;;;;1.87;1.27;;;;;;;6.22;nan;98991.22;5037113;28;20231;-76
2023/04/03 10:44:53;;;;;;;2.60;1.50;;;;;;;6.26;nan;98996.97;5035214;28;20197;-76
2023/04/03 10:47:33;;;;;;;3.63;1.47;;;;;;;6.37;nan;98992.16;5036735;28;20546;-77
2023/04/03 10:50:27;;;;;;;3.87;1.50;;;;;;;6.29;nan;98988.72;5053155;28;20189;-75
2023/04/03 10:53:06;;;;;;;1.50;1.33;;;;;;;6.35;nan;98991.50;5036695;28;20705;-74
2023/04/03 10:55:39;;;;;;;2.37;1.30;;;;;;;6.45;nan;98992.13;5036063;28;20186;-76
2023/04/03 10:58:07;;;;;;;2.50;1.23;;;;;;;6.27;nan;98988.03;5053257;28;20590;-76
2023/04/03 11:00:49;;;;;;;3.07;1.40;;;;;;;6.46;nan;98983.22;5053007;28;20201;-76
2023/04/03 11:03:27;;;;;;;2.90;1.20;;;;;;;6.69;nan;98985.94;5053071;28;20225;-76
2023/04/03 11:05:57;;;;;;;3.27;1.60;;;;;;;7.08;nan;98982.25;5052973;28;20189;-77
2023/04/03 11:08:51;;;;;;;2.77;1.40;;;;;;;7.11;nan;98978.44;5053039;28;20205;-77
2023/04/03 11:11:25;;;;;;;2.93;1.70;;;;;;;7.10;nan;98982.09;5052746;28;20719;-76
2023/04/03 11:13:55;;;;;;;2.77;1.40;;;;;;;7.12;nan;98985.38;5052667;28;20228;-77
2023/04/03 11:16:28;;;;;;;2.93;1.30;;;;;;;7.15;nan;98977.09;5052768;28;20672;-77
2023/04/03 11:19:03;;;;;;;2.33;1.27;;;;;;;6.81;nan;98984.53;5052780;28;20225;-77
2023/04/03 11:21:38;;;;;;;4.80;1.60;;;;;;;6.68;nan;98977.19;5052753;28;20194;-76
2023/04/03 11:24:11;;;;;;;3.07;1.13;;;;;;;6.86;nan;98979.56;5052758;28;20579;-76
2023/04/03 11:26:41;;;;;;;1.53;1.17;;;;;;;6.76;nan;98979.78;5053191;28;20536;-77
2023/04/03 11:29:13;;;;;;;3.03;1.50;;;;;;;6.58;nan;98975.72;5052632;28;20198;-77
2023/04/03 11:32:08;;;;;;;3.63;1.63;;;;;;;6.48;nan;98969.84;5034978;28;20190;-76
2023/04/03 11:34:41;;;;;;;2.00;1.30;;;;;;;6.47;nan;98968.19;5052728;28;20224;-76
2023/04/03 11:37:29;;;;;;;3.13;1.47;;;;;;;6.62;nan;98969.13;5052906;28;20239;-76
2023/04/03 11:40:02;;;;;;;1.27;1.10;;;;;;;6.67;nan;98969.41;5052951;28;20217;-76
2023/04/03 11:42:50;;;;;;;3.00;1.23;;;;;;;6.92;nan;98963.03;5052291;28;20221;-76
2023/04/03 11:45:26;;;;;;;3.10;1.37;;;;;;;6.66;nan;98973.06;5055497;28;20197;-75
2023/04/03 11:47:56;;;;;;;1.13;1.00;;;;;;;6.76;nan;98963.94;5056492;28;20232;-75
2023/04/03 11:50:37;;;;;;;2.23;1.47;;;;;;;7.00;nan;98958.50;5056610;28;20201;-76
2023/04/03 11:53:07;;;;;;;1.67;1.30;;;;;;;6.91;nan;98956.06;5056804;28;20229;-76
2023/04/03 11:55:34;;;;;;;5.87;1.50;;;;;;;7.22;nan;98959.50;5056552;28;20212;-76
2023/04/03 11:58:00;;;;;;;1.43;1.10;;;;;;;7.14;nan;98957.75;5055945;28;20205;-76
2023/04/03 12:00:46;;;;;;;2.17;1.13;;;;;;;7.31;nan;98947.88;5056427;28;20358;-76
2023/04/03 12:03:24;;;;;;;2.93;1.47;;;;;;;7.36;nan;98954.28;5055840;28;20720;-76
2023/04/03 12:06:11;;;;;;;1.87;1.27;;;;;;;7.27;nan;98954.53;5056748;28;20652;-76
2023/04/03 12:08:40;;;;;;;2.20;1.37;;;;;;;7.51;nan;98951.72;5025249;28;20227;-77
2023/04/03 12:11:10;;;;;;;1.90;1.17;;;;;;;7.02;nan;98942.47;5055928;28;20209;-76
2023/04/03 12:13:43;;;;;;;1.43;1.10;;;;;;;7.08;nan;98936.47;5056028;28;20225;-76